createdAt,value
2023-03-25T04:01:46.086Z,0.87
2023-03-25T04:04:16.963Z,0.65
2023-03-25T04:06:50.625Z,0.80
2023-03-25T04:09:27.416Z,0.80
2023-03-25T04:12:00.019Z,0.90
2023-03-25T04:14:28.114Z,0.67
2023-03-25T04:16:57.336Z,0.70
2023-03-25T04:19:25.674Z,0.90
2023-03-25T04:21:53.787Z,0.90
2023-03-25T04:24:21.670Z,0.70
2023-03-25T04:26:49.660Z,0.50
2023-03-25T04:29:17.594Z,1.00
2023-03-25T04:31:49.817Z,0.77
2023-03-25T04:34:20.504Z,0.85
2023-03-25T04:36:50.319Z,0.90
2023-03-25T04:39:22.443Z,0.87
2023-03-25T04:41:50.772Z,0.85
2023-03-25T04:44:18.853Z,0.97
2023-03-25T04:46:46.751Z,0.93
2023-03-25T04:49:22.030Z,0.70
2023-03-25T04:51:51.517Z,0.70
2023-03-25T04:54:19.938Z,0.90
2023-03-25T04:56:49.608Z,0.70
2023-03-25T04:59:18.236Z,0.70
2023-03-25T05:01:47.055Z,0.90
2023-03-25T05:04:20.375Z,1.00
2023-03-25T05:06:51.204Z,0.80
2023-03-25T05:09:21.925Z,0.70
2023-03-25T05:11:50.865Z,0.67
2023-03-25T05:14:20.502Z,0.80
2023-03-25T05:16:49.084Z,0.60
2023-03-25T05:19:18.796Z,0.63
2023-03-25T05:21:46.936Z,0.83
2023-03-25T05:24:16.172Z,0.90
2023-03-25T05:26:44.330Z,0.97
2023-03-25T05:29:14.914Z,0.70
2023-03-25T05:31:44.675Z,0.90
2023-03-25T05:34:14.599Z,0.77
2023-03-25T05:36:43.609Z,0.77
2023-03-25T05:39:11.787Z,0.77
2023-03-25T05:41:41.612Z,0.73
2023-03-25T05:44:15.450Z,0.60
2023-03-25T05:46:43.510Z,0.80
2023-03-25T05:49:11.388Z,0.73
2023-03-25T05:51:39.278Z,0.90
2023-03-25T05:54:11.528Z,0.77
2023-03-25T05:56:41.391Z,0.70
2023-03-25T05:59:10.227Z,0.70
2023-03-25T06:01:38.564Z,0.90
2023-03-25T06:04:09.909Z,0.90
2023-03-25T06:06:38.467Z,0.80
2023-03-25T06:09:06.701Z,0.90
2023-03-25T06:11:38.235Z,0.80
2023-03-25T06:14:09.183Z,0.83
2023-03-25T06:16:37.390Z,0.60
2023-03-25T06:19:05.526Z,0.90
2023-03-25T06:21:36.194Z,0.40
2023-03-25T06:24:04.383Z,0.83
2023-03-25T06:26:32.574Z,0.80
2023-03-25T06:29:02.543Z,0.80
2023-03-25T06:31:34.247Z,0.90
2023-03-25T06:34:02.592Z,0.90
2023-03-25T06:36:31.316Z,0.90
2023-03-25T06:38:59.363Z,1.10
2023-03-25T06:41:28.013Z,0.90
2023-03-25T06:44:11.357Z,0.90
2023-03-25T06:46:49.434Z,1.00
2023-03-25T06:49:28.819Z,1.03
2023-03-25T06:51:58.192Z,1.20
2023-03-25T06:54:26.032Z,1.00
2023-03-25T06:56:54.116Z,1.10
2023-03-25T06:59:22.064Z,1.10
2023-03-25T07:01:51.315Z,1.20
2023-03-25T07:04:19.695Z,0.90
2023-03-25T07:06:47.847Z,0.95
2023-03-25T07:09:15.692Z,1.05
2023-03-25T07:11:44.146Z,1.00
2023-03-25T07:14:12.313Z,0.98
2023-03-25T07:16:40.195Z,1.10
2023-03-25T07:19:09.415Z,1.25
2023-03-25T07:21:37.256Z,1.20
2023-03-25T07:24:05.240Z,1.30
2023-03-25T07:26:33.090Z,1.30
2023-03-25T07:29:00.968Z,1.80
2023-03-25T07:31:29.160Z,1.38
2023-03-25T07:33:57.001Z,1.23
2023-03-25T07:36:26.957Z,1.33
2023-03-25T07:38:56.971Z,1.30
2023-03-25T07:41:25.266Z,1.33
2023-03-25T07:44:06.526Z,1.40
2023-03-25T07:46:34.487Z,1.33
2023-03-25T07:49:02.361Z,1.55
2023-03-25T07:51:33.096Z,1.27
2023-03-25T07:54:05.287Z,1.45
2023-03-25T07:56:34.729Z,1.63
2023-03-25T07:59:02.820Z,1.83
2023-03-25T08:01:30.915Z,1.50
2023-03-25T08:03:59.007Z,1.40
2023-03-25T08:06:27.143Z,1.73
2023-03-25T08:08:56.585Z,1.40
2023-03-25T08:11:24.599Z,1.63
2023-03-25T08:13:52.418Z,1.48
2023-03-25T08:16:20.305Z,1.45
2023-03-25T08:18:48.177Z,1.50
2023-03-25T08:21:16.354Z,1.67
2023-03-25T08:23:44.534Z,1.55
2023-03-25T08:26:13.909Z,1.67
2023-03-25T08:28:41.739Z,1.70
2023-03-25T08:31:09.932Z,1.65
2023-03-25T08:33:40.848Z,1.35
2023-03-25T08:36:10.549Z,1.83
2023-03-25T08:38:38.538Z,1.70
2023-03-25T08:41:06.441Z,1.65
2023-03-25T08:43:35.665Z,1.58
2023-03-25T08:46:03.604Z,1.55
2023-03-25T08:48:31.592Z,1.25
2023-03-25T08:50:59.848Z,1.50
2023-03-25T08:53:27.806Z,1.63
2023-03-25T08:55:56.723Z,1.42
2023-03-25T08:58:25.215Z,1.90
2023-03-25T09:00:56.332Z,1.55
2023-03-25T09:03:25.014Z,1.75
2023-03-25T09:05:53.365Z,1.63
2023-03-25T09:08:21.813Z,1.48
2023-03-25T09:10:50.257Z,1.67
2023-03-25T09:13:18.154Z,1.65
2023-03-25T09:15:46.858Z,1.67
2023-03-25T09:18:16.550Z,1.75
2023-03-25T09:20:47.734Z,1.55
2023-03-25T09:23:16.209Z,1.55
2023-03-25T09:25:44.201Z,1.58
2023-03-25T09:28:12.060Z,1.20
2023-03-25T09:30:39.910Z,0.63
2023-03-25T09:33:07.855Z,0.90
2023-03-25T09:35:37.188Z,1.93
2023-03-25T09:38:05.729Z,2.20
2023-03-25T09:40:33.583Z,1.70
2023-03-25T09:43:06.396Z,1.40
2023-03-25T09:45:37.794Z,0.90
2023-03-25T09:48:24.173Z,0.60
2023-03-25T09:50:53.374Z,0.80
2023-03-25T09:53:29.294Z,0.80
2023-03-25T09:55:57.362Z,1.10
2023-03-25T09:58:31.004Z,1.00
2023-03-25T10:01:03.771Z,0.90
2023-03-25T10:03:38.478Z,1.00
2023-03-25T10:06:19.727Z,1.17
2023-03-25T10:09:16.324Z,0.80
2023-03-25T10:11:50.818Z,0.90
2023-03-25T10:14:22.611Z,1.60
2023-03-25T10:17:02.951Z,2.40
2023-03-25T10:19:43.850Z,2.03
2023-03-25T10:22:18.938Z,0.70
2023-03-25T10:24:49.597Z,0.70
2023-03-25T10:27:24.039Z,0.65
2023-03-25T10:29:55.722Z,0.80
2023-03-25T10:32:33.090Z,0.88
2023-03-25T10:35:03.754Z,1.10
2023-03-25T10:37:35.630Z,1.15
2023-03-25T10:40:16.562Z,1.17
2023-03-25T10:42:55.515Z,1.13
2023-03-25T10:45:24.564Z,1.00
2023-03-25T10:47:56.934Z,0.90
2023-03-25T10:50:26.177Z,0.90
2023-03-25T10:52:57.298Z,0.80
2023-03-25T10:55:27.942Z,1.10
2023-03-25T10:57:57.186Z,0.93
2023-03-25T11:00:26.457Z,1.00
2023-03-25T11:02:55.976Z,1.27
2023-03-25T11:05:27.817Z,1.10
2023-03-25T11:08:08.753Z,1.02
2023-03-25T11:10:39.838Z,1.27
2023-03-25T11:13:16.199Z,1.13
2023-03-25T11:15:44.925Z,1.00
2023-03-25T11:18:22.072Z,0.90
2023-03-25T11:20:52.233Z,1.20
2023-03-25T11:23:27.040Z,1.17
2023-03-25T11:25:56.742Z,1.13
2023-03-25T11:28:35.358Z,1.10
2023-03-25T11:31:18.207Z,1.00
2023-03-25T11:33:48.276Z,0.98
2023-03-25T11:36:29.912Z,1.23
2023-03-25T11:39:01.605Z,1.10
2023-03-25T11:41:31.376Z,1.10
2023-03-25T11:43:59.789Z,0.98
2023-03-25T11:46:27.755Z,0.75
2023-03-25T11:48:55.891Z,0.80
2023-03-25T11:51:25.948Z,1.00
2023-03-25T11:54:01.399Z,0.82
2023-03-25T11:56:35.915Z,1.30
2023-03-25T11:59:08.333Z,1.30
2023-03-25T12:01:41.867Z,1.08
2023-03-25T12:04:14.962Z,0.75
2023-03-25T12:06:58.810Z,1.13
2023-03-25T12:09:29.939Z,0.95
2023-03-25T12:12:10.257Z,0.95
2023-03-25T12:14:52.534Z,1.02
2023-03-25T12:17:30.928Z,1.20
2023-03-25T12:20:11.163Z,1.10
2023-03-25T12:22:54.845Z,1.27
2023-03-25T12:25:27.865Z,1.10
2023-03-25T12:28:19.178Z,1.00
2023-03-25T12:30:58.820Z,0.70
2023-03-25T12:33:41.119Z,1.60
2023-03-25T12:36:23.314Z,0.95
2023-03-25T12:39:03.862Z,0.90
2023-03-25T12:41:38.435Z,1.20
2023-03-25T12:44:11.400Z,1.13
2023-03-25T12:46:56.984Z,1.25
2023-03-25T12:49:38.045Z,1.17
2023-03-25T12:52:12.251Z,1.70
2023-03-25T12:54:52.797Z,1.30
2023-03-25T12:57:41.871Z,0.82
2023-03-25T13:00:23.074Z,1.05
2023-03-25T13:03:20.625Z,0.90
2023-03-25T13:05:54.096Z,1.17
2023-03-25T13:08:27.192Z,0.80
2023-03-25T13:11:02.623Z,1.00
2023-03-25T13:13:32.739Z,0.95
2023-03-25T13:16:07.091Z,0.90
2023-03-25T13:18:39.705Z,1.05
2023-03-25T13:21:14.011Z,1.40
2023-03-25T13:23:44.523Z,1.92
2023-03-25T13:26:15.209Z,1.42
2023-03-25T13:28:46.708Z,1.08
2023-03-25T13:31:20.600Z,1.10
2023-03-25T13:33:54.252Z,1.50
2023-03-25T13:36:29.312Z,1.25
2023-03-25T13:39:00.225Z,1.23
2023-03-25T13:41:33.825Z,0.90
2023-03-25T13:44:06.336Z,1.08
2023-03-25T13:46:39.297Z,1.02
2023-03-25T13:49:15.854Z,1.80
2023-03-25T13:51:45.549Z,1.13
2023-03-25T13:54:17.658Z,0.88
2023-03-25T13:57:06.946Z,0.90
2023-03-25T14:00:06.008Z,1.02
2023-03-25T14:03:27.269Z,1.80
2023-03-25T14:06:10.343Z,1.20
2023-03-25T14:09:05.806Z,1.63
2023-03-25T14:11:39.855Z,1.20
2023-03-25T14:14:11.451Z,1.13
2023-03-25T14:16:44.341Z,1.15
2023-03-25T14:19:16.674Z,2.83
2023-03-25T14:21:48.655Z,1.88
2023-03-25T14:24:19.330Z,1.85
2023-03-25T14:26:50.420Z,1.83
2023-03-25T14:29:25.560Z,1.50
2023-03-25T14:32:06.112Z,0.98
2023-03-25T14:34:38.259Z,1.00
2023-03-25T14:37:26.006Z,1.10
2023-03-25T14:39:56.675Z,1.10
2023-03-25T14:42:42.391Z,1.17
2023-03-25T14:45:52.090Z,1.35
2023-03-25T14:48:31.677Z,1.30
2023-03-25T14:51:23.355Z,1.15
2023-03-25T14:53:57.265Z,1.50
2023-03-25T14:56:27.217Z,1.33
2023-03-25T14:58:59.172Z,1.40
2023-03-25T15:01:34.140Z,1.67
2023-03-25T15:04:15.339Z,1.65
2023-03-25T15:06:46.022Z,1.17
2023-03-25T15:09:16.701Z,1.10
2023-03-25T15:11:46.182Z,0.90
2023-03-25T15:14:20.124Z,1.15
2023-03-25T15:17:04.973Z,1.33
2023-03-25T15:20:07.155Z,1.40
2023-03-25T15:22:36.872Z,1.33
2023-03-25T15:25:12.419Z,1.20
2023-03-25T15:28:05.741Z,1.20
2023-03-25T15:31:08.261Z,1.27
2023-03-25T15:33:52.307Z,1.15
2023-03-25T15:36:38.897Z,0.90
2023-03-25T15:39:35.685Z,1.08
2023-03-25T15:42:27.155Z,1.00
2023-03-25T15:45:12.475Z,1.00
2023-03-25T15:48:10.692Z,1.00
2023-03-25T15:50:49.717Z,1.30
2023-03-25T15:53:42.560Z,1.70
2023-03-25T15:56:14.563Z,1.33
2023-03-25T15:58:48.690Z,0.88
2023-03-25T16:01:24.465Z,1.40
2023-03-25T16:04:01.131Z,1.90
2023-03-25T16:06:31.554Z,1.70
2023-03-25T16:09:01.223Z,1.25
2023-03-25T16:11:31.274Z,0.90
2023-03-25T16:14:04.089Z,1.40
2023-03-25T16:16:35.808Z,1.58
2023-03-25T16:19:06.146Z,1.50
2023-03-25T16:21:34.532Z,1.50
2023-03-25T16:24:07.741Z,1.52
2023-03-25T16:26:40.170Z,1.40
2023-03-25T16:29:11.017Z,1.50
2023-03-25T16:31:42.775Z,1.50
2023-03-25T16:34:15.607Z,1.40
2023-03-25T16:36:44.936Z,1.10
2023-03-25T16:39:15.437Z,1.13
2023-03-25T16:41:51.932Z,1.25
2023-03-25T16:44:22.905Z,1.60
2023-03-25T16:46:53.401Z,1.48
2023-03-25T16:49:27.003Z,1.50
2023-03-25T16:51:55.884Z,1.73
2023-03-25T16:54:32.141Z,1.50
2023-03-25T16:57:03.275Z,1.23
2023-03-25T16:59:34.603Z,1.10
2023-03-25T17:02:03.875Z,1.30
2023-03-25T17:04:41.679Z,2.15
2023-03-25T17:07:14.770Z,1.90
2023-03-25T17:09:44.821Z,2.00
2023-03-25T17:12:20.067Z,1.38
2023-03-25T17:14:50.161Z,1.30
2023-03-25T17:17:34.634Z,1.30
2023-03-25T17:20:08.644Z,1.33
2023-03-25T17:22:39.525Z,1.23
2023-03-25T17:25:18.464Z,1.20
2023-03-25T17:27:49.242Z,1.05
2023-03-25T17:30:20.632Z,1.05
2023-03-25T17:32:48.727Z,1.05
2023-03-25T17:35:23.947Z,1.08
2023-03-25T17:37:51.954Z,0.70
2023-03-25T17:40:23.205Z,1.10
2023-03-25T17:42:52.540Z,1.35
2023-03-25T17:45:22.728Z,1.50
2023-03-25T17:47:51.283Z,0.98
2023-03-25T17:50:21.968Z,1.33
2023-03-25T17:52:49.912Z,1.38
2023-03-25T17:55:17.792Z,1.10
2023-03-25T17:57:46.438Z,1.02
2023-03-25T18:00:18.385Z,1.10
2023-03-25T18:02:46.621Z,1.30
2023-03-25T18:05:15.412Z,1.10
2023-03-25T18:07:43.733Z,1.25
2023-03-25T18:10:23.361Z,1.80
2023-03-25T18:12:51.280Z,1.35
2023-03-25T18:15:20.452Z,1.48
2023-03-25T18:17:50.220Z,1.20
2023-03-25T18:20:21.755Z,1.50
2023-03-25T18:22:49.665Z,1.10
2023-03-25T18:25:17.651Z,1.33
2023-03-25T18:27:51.293Z,1.10
2023-03-25T18:30:25.435Z,1.20
2023-03-25T18:32:53.585Z,1.38
2023-03-25T18:35:21.882Z,1.20
2023-03-25T18:37:50.237Z,1.30
2023-03-25T18:40:23.215Z,1.38
2023-03-25T18:42:52.033Z,1.20
2023-03-25T18:45:22.912Z,1.10
2023-03-25T18:47:52.266Z,1.10
2023-03-25T18:50:26.455Z,1.05
2023-03-25T18:52:54.427Z,1.35
2023-03-25T18:55:22.454Z,1.88
2023-03-25T18:57:50.775Z,1.15
2023-03-25T19:00:24.056Z,0.90
2023-03-25T19:02:52.955Z,0.75
2023-03-25T19:05:21.619Z,1.35
2023-03-25T19:07:50.242Z,1.05
2023-03-25T19:10:21.122Z,1.10
2023-03-25T19:12:49.663Z,0.90
2023-03-25T19:15:19.448Z,0.98
2023-03-25T19:17:49.583Z,1.35
2023-03-25T19:20:19.818Z,1.08
2023-03-25T19:22:48.149Z,1.20
2023-03-25T19:25:17.476Z,1.02
2023-03-25T19:27:46.812Z,1.05
2023-03-25T19:30:17.184Z,1.10
2023-03-25T19:32:46.945Z,1.08
2023-03-25T19:35:18.264Z,1.02
2023-03-25T19:37:50.779Z,1.20
2023-03-25T19:40:21.021Z,1.42
2023-03-25T19:42:50.370Z,1.17
2023-03-25T19:45:18.742Z,1.00
2023-03-25T19:47:46.755Z,0.82
2023-03-25T19:50:18.983Z,1.00
2023-03-25T19:52:48.498Z,1.10
2023-03-25T19:55:17.141Z,1.20
2023-03-25T19:57:47.333Z,1.10
2023-03-25T20:00:17.849Z,1.08
2023-03-25T20:02:47.868Z,1.02
2023-03-25T20:05:17.714Z,1.00
2023-03-25T20:07:46.445Z,1.25
2023-03-25T20:10:19.645Z,1.50
2023-03-25T20:12:48.865Z,1.38
2023-03-25T20:15:18.040Z,1.20
2023-03-25T20:17:46.008Z,1.42
2023-03-25T20:20:15.234Z,1.20
2023-03-25T20:22:44.696Z,1.40
2023-03-25T20:25:14.472Z,1.27
2023-03-25T20:27:43.010Z,1.00
2023-03-25T20:30:13.817Z,1.35
2023-03-25T20:32:43.194Z,1.25
2023-03-25T20:35:14.248Z,1.17
2023-03-25T20:37:42.342Z,1.20
2023-03-25T20:40:15.365Z,1.20
2023-03-25T20:42:45.654Z,1.20
2023-03-25T20:45:15.709Z,1.20
2023-03-25T20:47:43.835Z,1.30
2023-03-25T20:50:14.373Z,1.10
2023-03-25T20:52:43.676Z,1.30
2023-03-25T20:55:13.782Z,1.00
2023-03-25T20:57:41.820Z,1.30
2023-03-25T21:00:13.084Z,1.23
2023-03-25T21:02:41.350Z,1.00
2023-03-25T21:05:09.875Z,1.10
2023-03-25T21:07:38.921Z,1.30
2023-03-25T21:10:08.848Z,1.60
2023-03-25T21:12:43.973Z,1.20
2023-03-25T21:15:14.364Z,1.40
2023-03-25T21:17:42.633Z,1.50
2023-03-25T21:20:11.678Z,2.08
2023-03-25T21:22:44.034Z,1.40
2023-03-25T21:25:13.045Z,1.98
2023-03-25T21:27:42.458Z,1.35
2023-03-25T21:30:11.726Z,2.08
2023-03-25T21:32:39.907Z,1.38
2023-03-25T21:35:09.398Z,1.50
2023-03-25T21:37:39.440Z,1.20
2023-03-25T21:40:11.328Z,1.55
2023-03-25T21:42:41.160Z,1.25
2023-03-25T21:45:13.516Z,1.05
2023-03-25T21:47:42.243Z,1.10
2023-03-25T21:50:12.846Z,1.10
2023-03-25T21:52:46.262Z,1.10
2023-03-25T21:55:15.191Z,1.20
2023-03-25T21:57:44.758Z,0.90
2023-03-25T22:00:17.825Z,1.23
2023-03-25T22:02:46.772Z,0.93
2023-03-25T22:05:16.834Z,1.20
2023-03-25T22:07:46.180Z,1.10
2023-03-25T22:10:14.048Z,1.02
2023-03-25T22:12:42.078Z,1.15
2023-03-25T22:15:11.614Z,1.10
2023-03-25T22:17:40.980Z,0.98
2023-03-25T22:20:10.016Z,0.95
2023-03-25T22:22:37.931Z,1.35
2023-03-25T22:25:06.683Z,1.20
2023-03-25T22:27:34.797Z,1.20
2023-03-25T22:30:03.157Z,1.35
2023-03-25T22:32:31.277Z,1.02
2023-03-25T22:35:00.524Z,1.10
2023-03-25T22:37:28.396Z,1.15
2023-03-25T22:39:56.270Z,1.15
2023-03-25T22:42:25.711Z,1.20
2023-03-25T22:44:53.657Z,1.00
2023-03-25T22:47:21.566Z,1.10
2023-03-25T22:49:49.436Z,0.95
2023-03-25T22:52:18.669Z,1.40
2023-03-25T22:54:46.590Z,1.27
2023-03-25T22:57:14.559Z,1.20
2023-03-25T22:59:42.441Z,1.33
